Time;durP1;ratioP1;P1;durP2;ratioP2;P2;SDS_P1;SDS_P2;PMS_P1;PMS_P2;Temp;Humidity;BMP_temperature;BMP_pressure;BME280_temperature;BME280_humidity;BME280_pressure;Samples;Min_cycle;Max_cycle;Signal;HPM_P1;HPM_P2
2021/05/26 00:01:22;;;;;;;4.13;1.43;;;7.50;99.90;;;;;;4803502;28;20247;-89
2021/05/26 00:03:45;;;;;;;2.63;1.03;;;;;;;;;;4805743;28;20247;-90
2021/05/26 00:06:07;;;;;;;2.33;1.10;;;6.30;99.90;;;;;;4821090;28;20208;-85
2021/05/26 00:08:32;;;;;;;3.60;1.33;;;7.10;99.90;;;;;;4790032;28;20277;-87
2021/05/26 00:10:54;;;;;;;3.77;1.13;;;;;;;;;;4838959;28;20183;-89
2021/05/26 00:13:16;;;;;;;5.63;1.73;;;6.90;99.90;;;;;;4820541;28;20711;-87
2021/05/26 00:15:38;;;;;;;2.00;0.90;;;7.10;99.90;;;;;;4838870;28;20637;-87
2021/05/26 00:18:00;;;;;;;2.00;1.00;;;6.70;99.90;;;;;;4803930;28;20203;-90
2021/05/26 00:20:22;;;;;;;5.17;1.77;;;6.80;1.00;;;;;;4820975;28;20204;-89
2021/05/26 00:22:45;;;;;;;2.57;1.13;;;;;;;;;;4805322;28;20203;-89
2021/05/26 00:25:10;;;;;;;1.93;0.93;;;7.00;1.00;;;;;;4822159;28;20246;-90
2021/05/26 00:27:33;;;;;;;2.87;1.10;;;6.80;1.00;;;;;;4806035;28;20777;-90
2021/05/26 00:29:55;;;;;;;1.73;0.97;;;6.60;1.00;;;;;;4842814;28;20194;-91
2021/05/26 00:32:17;;;;;;;4.67;1.67;;;6.70;1.00;;;;;;4824579;28;20199;-86
2021/05/26 00:34:40;;;;;;;3.03;1.10;;;;;;;;;;4825216;28;20203;-87
2021/05/26 00:37:04;;;;;;;3.10;1.10;;;6.80;1.00;;;;;;4824596;28;20242;-91
2021/05/26 00:39:26;;;;;;;3.90;1.40;;;;;;;;;;4825010;28;20207;-85
2021/05/26 00:41:49;;;;;;;2.63;1.07;;;6.60;99.90;;;;;;4823983;28;20323;-85
2021/05/26 00:44:15;;;;;;;2.33;1.00;;;6.70;99.90;;;;;;4807240;28;20192;-88
2021/05/26 00:46:40;;;;;;;3.67;1.23;;;6.70;99.90;;;;;;4841237;28;20656;-90
2021/05/26 00:49:03;;;;;;;2.27;1.20;;;6.70;99.90;;;;;;4841962;28;20218;-85
2021/05/26 00:51:25;;;;;;;3.10;1.37;;;;;;;;;;4823709;28;20693;-83
2021/05/26 00:53:47;;;;;;;3.13;1.23;;;6.80;99.90;;;;;;4823986;28;20204;-89
2021/05/26 00:56:09;;;;;;;2.83;1.13;;;7.00;99.90;;;;;;4822997;28;20227;-87
2021/05/26 00:58:34;;;;;;;2.27;1.03;;;6.70;99.90;;;;;;4823880;28;20200;-91
2021/05/26 01:00:57;;;;;;;2.63;1.23;;;;;;;;;;4840531;28;20241;-88
2021/05/26 01:03:19;;;;;;;5.47;1.53;;;6.80;1.00;;;;;;4824299;28;20191;-89
2021/05/26 01:05:41;;;;;;;1.87;1.00;;;6.80;1.00;;;;;;4791028;28;20739;-88
2021/05/26 01:08:04;;;;;;;3.17;1.40;;;6.80;1.00;;;;;;4807062;28;20262;-84
2021/05/26 01:10:29;;;;;;;2.60;1.23;;;6.70;1.00;;;;;;4823508;28;20689;-86
2021/05/26 01:13:11;;;;;;;2.10;1.03;;;6.30;72.40;;;;;;4823913;28;20199;-89
2021/05/26 01:15:35;;;;;;;2.47;1.13;;;6.70;99.90;;;;;;4807326;28;20196;-88
2021/05/26 01:17:58;;;;;;;2.57;1.10;;;6.60;99.90;;;;;;4791672;28;20201;-88
2021/05/26 01:20:28;;;;;;;2.80;1.40;;;6.50;69.50;;;;;;4791912;28;20208;-82
2021/05/26 01:22:52;;;;;;;1.30;0.80;;;6.50;99.90;;;;;;4823744;28;20242;-91
2021/05/26 01:25:15;;;;;;;4.70;1.80;;;6.40;99.90;;;;;;4823896;28;20223;-88
2021/05/26 01:27:37;;;;;;;2.03;1.13;;;6.40;99.90;;;;;;4841241;28;20237;-87
2021/05/26 01:30:00;;;;;;;1.47;1.00;;;;;;;;;;4823667;28;20204;-87
2021/05/26 01:32:23;;;;;;;3.80;1.53;;;6.40;99.90;;;;;;4840349;28;20265;-88
2021/05/26 01:34:45;;;;;;;1.40;0.83;;;;;;;;;;4841069;28;20214;-84
2021/05/26 01:37:07;;;;;;;1.53;0.83;;;6.50;99.90;;;;;;4823098;28;20203;-83
2021/05/26 01:39:31;;;;;;;3.73;1.57;;;6.50;99.90;;;;;;4805533;28;20230;-86
2021/05/26 01:41:55;;;;;;;2.80;1.30;;;6.40;99.90;;;;;;4806798;28;20296;-88
2021/05/26 01:44:17;;;;;;;4.80;1.63;;;6.60;99.90;;;;;;4822877;28;20219;-87
2021/05/26 01:46:47;;;;;;;2.13;1.03;;;;;;;;;;4840651;28;20241;-89
2021/05/26 01:49:10;;;;;;;1.97;0.97;;;6.60;99.90;;;;;;4806888;28;20224;-84
2021/05/26 01:51:32;;;;;;;3.53;1.20;;;6.60;99.90;;;;;;4806200;28;20195;-84
2021/05/26 01:53:54;;;;;;;1.67;0.97;;;6.70;99.90;;;;;;4839955;28;20178;-91
2021/05/26 01:56:18;;;;;;;3.57;1.50;;;6.60;1.00;;;;;;4822200;28;20289;-92
2021/05/26 01:59:07;;;;;;;2.33;1.17;;;;;;;;;;4836001;28;20653;-85
2021/05/26 02:01:30;;;;;;;4.80;1.80;;;;;;;;;;4838206;28;20186;-89
2021/05/26 02:03:54;;;;;;;2.03;1.10;;;6.60;1.00;;;;;;4822466;28;20187;-84
2021/05/26 02:06:17;;;;;;;5.67;1.77;;;6.70;1.00;;;;;;4839628;28;20241;-86
2021/05/26 02:08:41;;;;;;;2.20;1.07;;;6.70;99.90;;;;;;4822064;28;20282;-85
2021/05/26 02:13:44;;;;;;;2.13;1.13;;;6.70;1.00;;;;;;4821268;28;20214;-88
2021/05/26 02:16:08;;;;;;;1.83;0.90;;;;;;;;;;4806027;28;20200;-85
2021/05/26 02:18:31;;;;;;;3.03;1.57;;;;;;;;;;4821804;28;20231;-86
2021/05/26 02:20:54;;;;;;;1.60;1.00;;;6.50;99.90;;;;;;4805814;28;20196;-90
2021/05/26 02:23:17;;;;;;;2.63;1.27;;;;;;;;;;4805741;28;20254;-82
2021/05/26 02:25:41;;;;;;;1.87;1.10;;;6.40;99.90;;;;;;4805798;28;20199;-89
2021/05/26 02:28:04;;;;;;;5.47;1.53;;;;;;;;;;4822682;28;20277;-85
2021/05/26 02:30:28;;;;;;;2.33;1.20;;;6.50;99.90;;;;;;4821992;28;20199;-91
2021/05/26 02:32:50;;;;;;;1.63;0.97;;;6.90;1.00;;;;;;4854449;28;20208;-89
2021/05/26 02:35:14;;;;;;;1.53;0.80;;;6.50;99.90;;;;;;4805815;28;20251;-91
2021/05/26 02:37:39;;;;;;;2.07;1.10;;;6.40;1.00;;;;;;4790525;28;20196;-90
2021/05/26 02:40:04;;;;;;;1.47;0.90;;;6.50;1.00;;;;;;4822236;28;20232;-87
2021/05/26 02:42:28;;;;;;;2.90;1.40;;;6.40;1.00;;;;;;4805241;28;20200;-89
2021/05/26 02:44:51;;;;;;;2.77;1.27;;;;;;;;;;4805474;28;20667;-90
2021/05/26 02:47:14;;;;;;;2.00;0.93;;;6.30;1.00;;;;;;4838592;28;20241;-91
2021/05/26 02:49:36;;;;;;;1.57;1.13;;;6.30;1.00;;;;;;4806254;28;20210;-87
2021/05/26 02:51:58;;;;;;;1.53;1.07;;;;;;;;;;4839339;28;20545;-86
2021/05/26 02:54:23;;;;;;;3.23;1.50;;;6.30;1.00;;;;;;4822336;28;20192;-88
2021/05/26 02:56:46;;;;;;;1.80;0.93;;;6.20;1.00;;;;;;4839700;28;20695;-88
2021/05/26 02:59:27;;;;;;;4.60;1.80;;;;;;;;;;4824222;28;20214;-82
2021/05/26 03:02:15;;;;;;;2.67;1.23;;;6.10;53.10;;;;;;4819040;28;20253;-88
2021/05/26 03:04:53;;;;;;;2.27;1.20;;;;;;;;;;4807481;28;20744;-88
2021/05/26 03:07:16;;;;;;;3.30;1.20;;;6.10;81.30;;;;;;4821453;28;20640;-93
2021/05/26 03:09:39;;;;;;;2.07;1.27;;;5.80;99.90;;;;;;4840059;28;20202;-89
2021/05/26 03:12:02;;;;;;;1.57;0.97;;;;;;;;;;4822116;28;20238;-90
2021/05/26 03:14:34;;;;;;;3.63;1.80;;;6.00;99.90;;;;;;4838777;28;20198;-89
2021/05/26 03:17:03;;;;;;;1.30;0.93;;;6.20;99.90;;;;;;4822059;28;20203;-88
2021/05/26 03:19:26;;;;;;;3.13;1.43;;;5.60;99.90;;;;;;4806024;28;20250;-92
2021/05/26 03:22:03;;;;;;;1.03;0.83;;;6.00;99.90;;;;;;4822330;28;20195;-87
2021/05/26 03:24:45;;;;;;;1.77;1.13;;;6.20;99.90;;;;;;4784146;28;20195;-93
2021/05/26 03:27:08;;;;;;;1.37;0.80;;;;;;;;;;4806803;28;20204;-82
2021/05/26 03:29:30;;;;;;;2.63;1.40;;;6.20;99.90;;;;;;4838172;28;20342;-89
2021/05/26 03:31:53;;;;;;;2.93;1.40;;;6.10;1.00;;;;;;4839588;28;20560;-86
2021/05/26 03:34:15;;;;;;;2.03;1.27;;;6.20;99.90;;;;;;4838835;28;20261;-89
2021/05/26 03:36:40;;;;;;;2.57;1.53;;;6.30;99.90;;;;;;4805377;28;20696;-95
2021/05/26 03:39:04;;;;;;;1.83;0.93;;;7.20;99.90;;;;;;4805525;28;20191;-86
2021/05/26 03:41:26;;;;;;;1.50;1.10;;;;;;;;;;4805711;28;20200;-93
2021/05/26 03:43:48;;;;;;;2.87;1.10;;;;;;;;;;4820872;28;20618;-86
2021/05/26 03:46:13;;;;;;;2.37;1.33;;;;;;;;;;4837773;28;20198;-86
2021/05/26 03:48:35;;;;;;;2.80;1.43;;;6.50;99.90;;;;;;4821398;28;20257;-88
2021/05/26 03:50:58;;;;;;;1.37;0.97;;;;;;;;;;4820583;28;20259;-90
2021/05/26 03:53:21;;;;;;;1.27;0.83;;;6.40;1.00;;;;;;4821939;28;20596;-90
2021/05/26 03:55:44;;;;;;;1.73;1.23;;;;;;;;;;4818771;28;20258;-85
2021/05/26 03:58:29;;;;;;;1.53;1.00;;;;;;;;;;4811021;28;20195;-88
2021/05/26 04:00:52;;;;;;;1.33;0.80;;;7.00;1.00;;;;;;4817582;28;20230;-91
2021/05/26 04:03:19;;;;;;;1.60;0.93;;;6.70;1.00;;;;;;4821515;28;20203;-91
2021/05/26 04:05:41;;;;;;;4.00;1.77;;;;;;;;;;4806008;28;20606;-86
2021/05/26 04:08:04;;;;;;;1.80;0.90;;;;;;;;;;4825048;28;20211;-84
2021/05/26 04:10:31;;;;;;;2.13;1.17;;;7.10;1.00;;;;;;4822484;28;20269;-88
2021/05/26 04:13:06;;;;;;;1.27;0.80;;;;;;;;;;4824089;28;20239;-92
2021/05/26 04:15:34;;;;;;;2.53;1.33;;;7.50;1.00;;;;;;4808667;28;20554;-88
2021/05/26 04:18:15;;;;;;;1.83;1.20;;;7.20;99.90;;;;;;4824198;28;20190;-92
2021/05/26 04:20:41;;;;;;;2.70;1.67;;;7.60;93.90;;;;;;4814666;28;20204;-92
2021/05/26 04:23:05;;;;;;;1.27;0.83;;;7.20;1.00;;;;;;4804418;28;20246;-92
2021/05/26 04:25:29;;;;;;;2.07;0.87;;;7.70;1.00;;;;;;4803960;28;20208;-90
2021/05/26 04:27:52;;;;;;;1.93;1.00;;;7.80;1.00;;;;;;4803808;28;20253;-89
2021/05/26 04:30:16;;;;;;;1.23;0.97;;;7.50;1.00;;;;;;4804136;28;20255;-90
2021/05/26 04:32:40;;;;;;;2.47;1.40;;;;;;;;;;4785077;29;20201;-92
2021/05/26 04:35:02;;;;;;;1.70;1.03;;;;;;;;;;4785197;29;20311;-88
2021/05/26 04:37:25;;;;;;;2.20;1.00;;;7.80;1.00;;;;;;4786036;28;20193;-93
2021/05/26 04:39:47;;;;;;;1.27;0.90;;;7.90;99.90;;;;;;4786332;28;20329;-91
2021/05/26 04:42:09;;;;;;;1.13;0.73;;;7.20;99.90;;;;;;4784683;29;20603;-92
2021/05/26 04:44:32;;;;;;;2.20;1.13;;;7.70;1.00;;;;;;4786382;28;20651;-95
2021/05/26 04:46:54;;;;;;;1.83;0.93;;;9.00;99.90;;;;;;4785196;29;20209;-95
2021/05/26 04:49:17;;;;;;;2.33;1.10;;;8.40;99.90;;;;;;4785877;29;20516;-93
2021/05/26 04:51:39;;;;;;;3.97;1.93;;;8.80;99.90;;;;;;4803084;28;20601;-88
2021/05/26 04:54:01;;;;;;;1.93;1.00;;;;;;;;;;4823034;28;20191;-94
2021/05/26 04:56:23;;;;;;;1.50;0.90;;;;;;;;;;4821688;28;20262;-85
2021/05/26 04:58:46;;;;;;;3.17;1.53;;;8.90;99.90;;;;;;4821376;28;20195;-89
2021/05/26 05:01:09;;;;;;;2.60;1.10;;;9.30;1.00;;;;;;4820116;28;20727;-85
2021/05/26 05:03:31;;;;;;;2.97;1.33;;;9.40;99.90;;;;;;4822162;28;20184;-89
2021/05/26 05:05:53;;;;;;;1.67;1.00;;;9.00;1.00;;;;;;4822912;28;20238;-85
2021/05/26 05:08:15;;;;;;;2.10;1.13;;;;;;;;;;4822544;28;20277;-87
2021/05/26 05:10:37;;;;;;;3.33;1.57;;;9.90;1.00;;;;;;4821016;28;20200;-85
2021/05/26 05:12:59;;;;;;;1.77;1.07;;;9.70;99.90;;;;;;4822287;28;20184;-85
2021/05/26 05:15:21;;;;;;;1.57;1.00;;;9.80;1.00;;;;;;4822561;28;20245;-85
2021/05/26 05:17:47;;;;;;;2.87;1.47;;;9.80;90.50;;;;;;4803781;28;20537;-87
2021/05/26 05:20:10;;;;;;;3.57;1.33;;;10.10;99.90;;;;;;4800965;28;20193;-90
2021/05/26 05:22:32;;;;;;;3.70;1.63;;;9.90;99.90;;;;;;4783046;29;20222;-85
2021/05/26 05:24:55;;;;;;;2.57;1.17;;;10.30;99.90;;;;;;4783199;29;20217;-84
2021/05/26 05:27:17;;;;;;;1.63;0.93;;;10.10;99.90;;;;;;4784092;29;20181;-87
2021/05/26 05:29:39;;;;;;;2.90;1.23;;;10.50;99.90;;;;;;4784015;29;20220;-91
2021/05/26 05:32:02;;;;;;;1.73;0.90;;;;;;;;;;4784360;28;20185;-89
2021/05/26 05:34:25;;;;;;;2.07;1.00;;;11.10;72.70;;;;;;4784189;28;20613;-85
2021/05/26 05:36:47;;;;;;;1.50;0.80;;;;;;;;;;4784721;29;20676;-86
2021/05/26 05:39:09;;;;;;;1.40;0.80;;;;;;;;;;4784713;28;20184;-91
2021/05/26 05:41:32;;;;;;;3.43;1.47;;;11.30;99.90;;;;;;4784490;28;20185;-85
2021/05/26 05:43:54;;;;;;;2.13;0.90;;;10.90;99.90;;;;;;4783220;29;20189;-85
2021/05/26 05:46:16;;;;;;;1.53;0.83;;;10.80;99.90;;;;;;4784177;29;20251;-86
2021/05/26 05:48:38;;;;;;;3.47;1.53;;;10.50;99.90;;;;;;4783258;29;20216;-85
2021/05/26 05:51:01;;;;;;;2.40;1.20;;;11.30;1.00;;;;;;4783952;29;20880;-86
2021/05/26 05:53:24;;;;;;;2.13;1.23;;;;;;;;;;4784094;29;20188;-87
2021/05/26 05:55:46;;;;;;;3.00;1.40;;;;;;;;;;4795004;28;20227;-85
2021/05/26 05:58:11;;;;;;;1.87;0.80;;;11.90;1.00;;;;;;4801723;28;20552;-81
2021/05/26 06:00:34;;;;;;;21.37;6.93;;;12.10;99.90;;;;;;4800067;28;20535;-87
2021/05/26 06:02:57;;;;;;;2.93;1.13;;;12.00;1.00;;;;;;4801811;28;20183;-84
2021/05/26 06:05:19;;;;;;;2.50;1.07;;;12.10;99.90;;;;;;4799539;28;20184;-82
2021/05/26 06:07:42;;;;;;;4.47;1.73;;;12.30;1.00;;;;;;4801010;28;20188;-79
2021/05/26 06:10:05;;;;;;;2.33;1.03;;;12.40;1.00;;;;;;4800774;28;20219;-82
2021/05/26 06:12:27;;;;;;;3.50;1.40;;;;;;;;;;4815859;28;20188;-82
2021/05/26 06:14:49;;;;;;;3.10;1.27;;;12.30;1.00;;;;;;4818118;28;20693;-85
2021/05/26 06:17:12;;;;;;;2.13;0.87;;;13.10;99.90;;;;;;4818025;28;20619;-80
2021/05/26 06:19:34;;;;;;;4.93;1.77;;;;;;;;;;4819441;28;20187;-87
2021/05/26 06:21:56;;;;;;;2.73;1.03;;;12.60;1.00;;;;;;4819547;28;20180;-83
2021/05/26 06:24:20;;;;;;;2.73;1.10;;;12.90;1.00;;;;;;4818983;28;20187;-86
2021/05/26 06:26:42;;;;;;;3.53;1.27;;;12.90;1.00;;;;;;4818810;28;20246;-81
2021/05/26 06:29:06;;;;;;;3.07;1.30;;;13.10;1.00;;;;;;4801536;28;20227;-88
2021/05/26 06:31:28;;;;;;;3.07;1.17;;;;;;;;;;4818569;28;20273;-89
2021/05/26 06:33:50;;;;;;;2.77;1.00;;;;;;;;;;4819762;28;20206;-81
2021/05/26 06:36:13;;;;;;;1.63;0.80;;;13.40;1.00;;;;;;4819678;28;20213;-89
2021/05/26 06:38:35;;;;;;;4.40;1.47;;;13.70;49.20;;;;;;4818962;28;20253;-83
2021/05/26 06:40:59;;;;;;;1.97;0.83;;;13.30;53.50;;;;;;4819753;28;20234;-94
2021/05/26 06:43:21;;;;;;;1.93;0.90;;;13.40;1.00;;;;;;4818650;28;20655;-84
2021/05/26 06:45:43;;;;;;;3.80;1.50;;;;;;;;;;4818457;28;20238;-87
2021/05/26 06:48:09;;;;;;;2.13;1.00;;;13.20;1.00;;;;;;4818711;28;20187;-81
2021/05/26 06:50:31;;;;;;;3.13;1.23;;;;;;;;;;4818202;28;20187;-83
2021/05/26 06:52:54;;;;;;;2.83;1.07;;;;;;;;;;4819390;28;20235;-86
2021/05/26 06:55:16;;;;;;;1.67;0.80;;;;;;;;;;4801099;28;20231;-88
2021/05/26 06:57:39;;;;;;;4.27;1.50;;;14.20;1.00;;;;;;4818699;28;20184;-87
2021/05/26 07:00:01;;;;;;;3.03;1.10;;;;;;;;;;4818429;28;20206;-87
2021/05/26 07:02:23;;;;;;;3.10;1.17;;;;;;;;;;4814952;28;20239;-85
2021/05/26 07:04:46;;;;;;;5.17;1.67;;;;;;;;;;4808620;28;20195;-81
2021/05/26 07:07:08;;;;;;;2.83;1.00;;;;;;;;;;4818457;28;20709;-84
2021/05/26 07:09:30;;;;;;;6.87;1.53;;;;;;;;;;4816143;28;20285;-84
2021/05/26 07:11:53;;;;;;;6.93;1.40;;;;;;;;;;4818081;28;20214;-82
2021/05/26 07:14:17;;;;;;;5.80;1.20;;;15.90;99.90;;;;;;4818347;28;20520;-81
2021/05/26 07:16:39;;;;;;;9.23;1.80;;;;;;;;;;4818114;28;20184;-85
2021/05/26 07:19:01;;;;;;;5.47;1.13;;;;;;;;;;4818405;28;20179;-90
2021/05/26 07:21:24;;;;;;;5.07;1.10;;;;;;;;;;4818922;28;20210;-81
2021/05/26 07:23:46;;;;;;;8.30;1.67;;;;;;;;;;4816767;28;20565;-84
2021/05/26 07:26:09;;;;;;;5.53;1.23;;;16.00;99.90;;;;;;4818599;28;20191;-83
2021/05/26 07:28:32;;;;;;;8.47;1.57;;;;;;;;;;4816657;28;20582;-81
2021/05/26 07:30:55;;;;;;;6.30;1.20;;;16.00;99.90;;;;;;4818590;28;20761;-84
2021/05/26 07:33:17;;;;;;;8.70;1.60;;;;;;;;;;4818568;28;20763;-88
2021/05/26 07:35:39;;;;;;;13.53;2.37;;;15.80;1.00;;;;;;4817015;28;20740;-83
2021/05/26 07:38:03;;;;;;;7.47;1.37;;;;;;;;;;4820239;28;20187;-87
2021/05/26 07:40:25;;;;;;;6.73;1.30;;;;;;;;;;4822170;28;20191;-84
2021/05/26 07:42:48;;;;;;;7.33;1.40;;;;;;;;;;4820206;28;20571;-85
2021/05/26 07:45:11;;;;;;;4.23;0.90;;;17.10;99.90;;;;;;4822533;28;20187;-84
2021/05/26 07:47:34;;;;;;;7.70;1.40;;;16.60;99.90;;;;;;4822173;28;20184;-78
2021/05/26 07:49:57;;;;;;;6.90;1.40;;;;;;;;;;4822190;28;20207;-87
2021/05/26 07:52:20;;;;;;;4.77;0.90;;;;;;;;;;4820482;28;20261;-81
2021/05/26 07:54:43;;;;;;;12.10;2.17;;;;;;;;;;4820539;28;20625;-80
2021/05/26 07:57:05;;;;;;;9.00;1.63;;;;;;;;;;4821522;28;20177;-76
2021/05/26 07:59:28;;;;;;;6.00;1.20;;;;;;;;;;4822546;28;20214;-81
2021/05/26 08:01:50;;;;;;;3.83;0.80;;;;;;;;;;4803372;28;20231;-89
2021/05/26 08:04:13;;;;;;;6.40;1.27;;;16.70;99.90;;;;;;4821974;28;20235;-83
2021/05/26 08:06:35;;;;;;;16.77;2.77;;;;;;;;;;4821942;28;20589;-87
2021/05/26 08:08:57;;;;;;;5.87;1.20;;;16.70;99.90;;;;;;4820561;28;20215;-80
2021/05/26 08:11:20;;;;;;;6.40;1.27;;;;;;;;;;4821917;28;20188;-81
2021/05/26 08:13:42;;;;;;;14.57;2.47;;;;;;;;;;4821772;28;20315;-79
2021/05/26 08:16:06;;;;;;;5.60;1.07;;;16.70;99.90;;;;;;4815155;28;20254;-80
2021/05/26 08:18:28;;;;;;;4.37;0.87;;;;;;;;;;4820595;28;20265;-86
2021/05/26 08:20:51;;;;;;;6.33;1.20;;;16.70;99.90;;;;;;4821313;28;20200;-83
2021/05/26 08:23:13;;;;;;;8.33;1.53;;;;;;;;;;4821164;28;20191;-81
2021/05/26 08:25:36;;;;;;;13.03;2.30;;;;;;;;;;4820969;28;20187;-87
2021/05/26 08:27:58;;;;;;;8.70;1.60;;;17.60;99.90;;;;;;4816397;28;20634;-82
2021/05/26 08:30:21;;;;;;;6.57;1.20;;;17.20;99.90;;;;;;4820469;28;20227;-86
2021/05/26 08:32:43;;;;;;;5.50;1.03;;;;;;;;;;4821755;28;20183;-88
2021/05/26 08:35:06;;;;;;;6.40;1.27;;;17.50;99.90;;;;;;4821497;28;20208;-87
2021/05/26 08:37:29;;;;;;;4.77;0.90;;;17.40;99.90;;;;;;4821499;28;20637;-89
2021/05/26 08:39:51;;;;;;;5.37;0.97;;;;;;;;;;4821418;28;20214;-78
2021/05/26 08:42:16;;;;;;;4.53;0.90;;;17.60;70.00;;;;;;4821118;28;20188;-86
2021/05/26 08:44:38;;;;;;;10.07;1.77;;;;;;;;;;4821175;28;20191;-85
2021/05/26 08:47:03;;;;;;;7.40;1.40;;;17.80;99.90;;;;;;4821072;28;20532;-78
2021/05/26 08:49:27;;;;;;;4.10;0.80;;;17.90;99.90;;;;;;4820074;28;20223;-84
2021/05/26 08:51:50;;;;;;;4.67;0.93;;;;;;;;;;4821198;28;20582;-86
2021/05/26 08:54:13;;;;;;;6.10;1.10;;;18.60;99.90;;;;;;4806152;28;20196;-83
2021/05/26 08:56:35;;;;;;;17.33;2.40;;;;;;;;;;4827698;28;20715;-83
2021/05/26 08:58:57;;;;;;;9.20;1.30;;;;;;;;;;4830834;28;20653;-82
2021/05/26 09:01:21;;;;;;;117.90;106.33;;;21.50;99.90;;;;;;4836993;28;20532;-80
2021/05/26 09:03:43;;;;;;;28.70;6.00;;;;;;;;;;4839573;28;20191;-81
2021/05/26 09:06:11;;;;;;;13.13;1.77;;;21.20;99.90;;;;;;4806369;28;20179;-89
2021/05/26 09:08:33;;;;;;;30.00;3.83;;;;;;;;;;4839385;28;20233;-84
2021/05/26 09:10:57;;;;;;;22.27;9.07;;;22.90;99.90;;;;;;4839527;28;20214;-80
2021/05/26 09:13:35;;;;;;;14.90;2.70;;;24.20;99.90;;;;;;4839249;28;20195;-83
2021/05/26 09:15:57;;;;;;;23.30;8.13;;;23.90;99.90;;;;;;4835315;28;20193;-80
2021/05/26 09:18:20;;;;;;;18.87;3.63;;;;;;;;;;4839477;28;20188;-85
2021/05/26 09:20:46;;;;;;;21.57;3.53;;;25.40;99.90;;;;;;4838716;28;20184;-85
2021/05/26 09:23:10;;;;;;;12.13;1.70;;;26.90;99.90;;;;;;4821086;28;20196;-83
2021/05/26 09:25:34;;;;;;;17.47;2.37;;;27.40;99.90;;;;;;4819892;28;20184;-84
2021/05/26 09:28:17;;;;;;;77.73;71.90;;;28.40;99.90;;;;;;4819922;28;20188;-86
2021/05/26 09:30:39;;;;;;;321.83;260.83;;;;;;;;;;4819802;28;20250;-83
2021/05/26 09:33:21;;;;;;;457.77;283.50;;;30.10;99.90;;;;;;4820219;28;20184;-82
2021/05/26 09:35:43;;;;;;;456.73;290.03;;;;;;;;;;4831723;28;20688;-81
2021/05/26 09:38:07;;;;;;;418.87;300.93;;;30.00;99.90;;;;;;4838230;28;20239;-87
2021/05/26 09:40:31;;;;;;;313.57;286.83;;;;;;;;;;4836677;28;20191;-88
2021/05/26 09:42:53;;;;;;;164.93;154.23;;;;;;;;;;4839467;28;20201;-87
2021/05/26 09:45:18;;;;;;;103.20;96.30;;;32.00;99.90;;;;;;4822042;28;20257;-85
2021/05/26 09:47:42;;;;;;;114.57;106.23;;;32.30;99.90;;;;;;4821670;28;20241;-79
2021/05/26 09:50:20;;;;;;;185.97;173.67;;;32.90;99.90;;;;;;4821812;28;20575;-88
2021/05/26 09:53:00;;;;;;;41.13;20.15;;;33.60;99.90;;;;;;4803386;28;20191;-86
2021/05/26 09:55:24;;;;;;;21.08;15.80;;;32.40;66.90;;;;;;4821472;28;20221;-84
2021/05/26 09:57:50;;;;;;;20.90;3.40;;;32.00;99.90;;;;;;4821407;28;20681;-84
2021/05/26 10:00:14;;;;;;;13.83;1.87;;;31.30;99.90;;;;;;4820319;28;20278;-82
2021/05/26 10:02:37;;;;;;;25.53;3.30;;;31.50;99.90;;;;;;4836625;28;20193;-83
2021/05/26 10:04:59;;;;;;;15.65;2.22;;;;;;;;;;4838588;28;20194;-85
2021/05/26 10:07:40;;;;;;;22.95;4.95;;;;;;;;;;4838416;28;20183;-86
2021/05/26 10:10:04;;;;;;;19.30;3.63;;;33.80;99.90;;;;;;4838503;28;20256;-79
2021/05/26 10:12:54;;;;;;;12.70;8.38;;;33.80;99.90;;;;;;4823778;28;20292;-83
2021/05/26 10:15:18;;;;;;;15.43;2.20;;;31.00;99.90;;;;;;4837844;28;20190;-80
2021/05/26 10:17:49;;;;;;;22.48;2.88;;;29.50;99.90;;;;;;4837923;28;20190;-81
2021/05/26 10:20:13;;;;;;;12.10;1.63;;;29.80;99.90;;;;;;4837676;28;20632;-78
2021/05/26 10:22:36;;;;;;;16.50;2.13;;;28.80;99.90;;;;;;4820298;28;20194;-80
2021/05/26 10:24:59;;;;;;;11.23;1.50;;;;;;;;;;4838155;28;20232;-81
2021/05/26 10:27:39;;;;;;;11.13;1.50;;;26.80;1.00;;;;;;4838051;28;20190;-80
2021/05/26 10:30:02;;;;;;;8.37;1.10;;;;;;;;;;4837618;28;20218;-78
2021/05/26 10:32:28;;;;;;;13.33;1.83;;;26.20;99.90;;;;;;4837237;28;20246;-80
2021/05/26 10:37:42;;;;;;;19.93;2.60;;;25.50;99.90;;;;;;4817068;28;20282;-86
2021/05/26 10:40:46;;;;;;;10.33;1.47;;;26.20;99.90;;;;;;4837520;28;20189;-82
2021/05/26 10:43:31;;;;;;;11.43;1.53;;;26.90;99.90;;;;;;4836747;28;20252;-77
2021/05/26 10:45:54;;;;;;;7.73;1.13;;;26.60;99.90;;;;;;4837310;28;20308;-83
2021/05/26 10:49:00;;;;;;;8.80;1.30;;;26.00;99.90;;;;;;4837517;28;20236;-78
2021/05/26 10:52:05;;;;;;;10.70;1.50;;;25.40;99.90;;;;;;4837420;28;20229;-85
2021/05/26 10:54:55;;;;;;;10.07;1.40;;;23.30;1.00;;;;;;4832636;28;20202;-80
2021/05/26 10:57:17;;;;;;;11.20;1.53;;;23.90;14.40;;;;;;4802130;28;20259;-79
2021/05/26 10:59:41;;;;;;;18.73;2.57;;;;;;;;;;4836708;28;20551;-78
2021/05/26 11:02:08;;;;;;;8.40;1.23;;;25.30;99.90;;;;;;4818159;28;20190;-82
2021/05/26 11:04:31;;;;;;;10.60;1.53;;;;;;;;;;4819469;28;20652;-86
2021/05/26 11:07:17;;;;;;;8.93;1.37;;;26.90;99.90;;;;;;4837358;28;20243;-86
2021/05/26 11:09:54;;;;;;;15.10;2.27;;;25.70;99.90;;;;;;4837123;28;20265;-80
2021/05/26 11:12:16;;;;;;;6.80;1.00;;;;;;;;;;4819354;28;20582;-87
2021/05/26 11:14:40;;;;;;;15.83;2.30;;;26.00;99.90;;;;;;4835784;28;20636;-85
2021/05/26 11:17:27;;;;;;;8.23;1.23;;;27.30;1.00;;;;;;4820025;28;20190;-78
2021/05/26 11:19:49;;;;;;;5.67;0.90;;;;;;;;;;4837238;28;20195;-85
2021/05/26 11:22:14;;;;;;;7.07;1.07;;;28.50;99.90;;;;;;4837412;28;20261;-80
2021/05/26 11:24:39;;;;;;;15.00;2.17;;;29.60;99.90;;;;;;4837158;28;20221;-81
2021/05/26 11:27:01;;;;;;;6.87;1.07;;;30.40;99.90;;;;;;4837099;28;20190;-80
2021/05/26 11:29:26;;;;;;;8.37;1.30;;;30.00;99.90;;;;;;4837184;28;20186;-84
2021/05/26 11:31:49;;;;;;;6.57;1.03;;;;;;;;;;4837012;28;20188;-85
2021/05/26 11:34:11;;;;;;;7.63;1.13;;;;;;;;;;4835584;28;20229;-80
2021/05/26 11:36:43;;;;;;;11.45;1.63;;;31.30;99.90;;;;;;4837014;28;20958;-86
2021/05/26 11:39:16;;;;;;;9.55;1.42;;;31.30;99.90;;;;;;4836823;28;20815;-85
2021/05/26 11:41:38;;;;;;;18.13;2.28;;;32.40;1.00;;;;;;4818867;28;20673;-84
2021/05/26 11:44:00;;;;;;;7.50;1.00;;;34.30;1.00;;;;;;4837337;28;20557;-83
2021/05/26 11:46:26;;;;;;;12.43;1.73;;;35.20;99.90;;;;;;4837041;28;20389;-83
2021/05/26 11:48:48;;;;;;;13.85;1.88;;;35.00;1.00;;;;;;4836625;28;20530;-83
2021/05/26 11:51:23;;;;;;;10.27;1.48;;;32.40;1.00;;;;;;4836389;28;20206;-80
2021/05/26 11:53:54;;;;;;;17.38;2.30;;;32.90;99.90;;;;;;4819046;28;20273;-86
2021/05/26 11:56:17;;;;;;;13.88;1.85;;;33.20;99.90;;;;;;4836618;28;20619;-88
2021/05/26 11:58:40;;;;;;;24.25;3.10;;;34.50;1.00;;;;;;4819442;28;20732;-87
2021/05/26 12:01:05;;;;;;;10.48;1.48;;;35.40;99.90;;;;;;4835101;28;20589;-80
2021/05/26 12:03:30;;;;;;;16.52;2.22;;;34.10;99.90;;;;;;4836477;28;20167;-82
2021/05/26 12:05:53;;;;;;;10.57;1.48;;;33.70;99.90;;;;;;4836864;28;20537;-79
2021/05/26 12:08:17;;;;;;;14.60;2.03;;;33.80;99.90;;;;;;4836269;28;20229;-82
2021/05/26 12:10:40;;;;;;;18.38;2.35;;;33.50;1.00;;;;;;4817844;28;20281;-81
2021/05/26 12:13:03;;;;;;;12.93;1.85;;;34.70;99.90;;;;;;4836263;28;20575;-79
2021/05/26 12:15:25;;;;;;;11.15;1.55;;;34.00;1.00;;;;;;4819000;28;20664;-82
2021/05/26 12:17:47;;;;;;;18.30;2.45;;;;;;;;;;4767771;28;20240;-83
2021/05/26 12:20:12;;;;;;;8.75;1.23;;;29.80;99.90;;;;;;4800497;28;20200;-79
2021/05/26 12:22:46;;;;;;;14.63;2.03;;;28.00;99.90;;;;;;4799551;28;20200;-81
2021/05/26 12:25:09;;;;;;;9.33;1.30;;;29.70;99.90;;;;;;4821364;28;20191;-87
2021/05/26 12:27:34;;;;;;;10.38;1.42;;;31.20;99.90;;;;;;4787967;28;20850;-85
2021/05/26 12:30:10;;;;;;;10.77;1.45;;;31.70;1.00;;;;;;4819332;28;20312;-81
2021/05/26 12:32:33;;;;;;;12.45;1.65;;;;;;;;;;4821680;28;20171;-87
2021/05/26 12:34:58;;;;;;;11.20;1.52;;;30.50;99.90;;;;;;4805197;28;20231;-87
2021/05/26 12:37:38;;;;;;;12.05;1.55;;;30.70;99.90;;;;;;4821071;28;20187;-78
2021/05/26 12:40:00;;;;;;;10.07;1.35;;;;;;;;;;4820957;28;20649;-83
2021/05/26 12:42:34;;;;;;;9.93;1.30;;;29.60;99.90;;;;;;4803794;28;20760;-79
2021/05/26 12:45:24;;;;;;;12.17;1.63;;;28.50;99.90;;;;;;4803634;28;20209;-82
2021/05/26 12:47:46;;;;;;;17.07;2.23;;;;;;;;;;4821375;28;20182;-81
2021/05/26 12:50:13;;;;;;;7.43;1.07;;;27.30;1.00;;;;;;4804041;28;20226;-89
2021/05/26 12:52:36;;;;;;;20.80;2.63;;;;;;;;;;4835981;28;20191;-84
2021/05/26 12:55:06;;;;;;;13.30;1.73;;;28.60;99.90;;;;;;4820611;28;20672;-81
2021/05/26 12:57:32;;;;;;;8.40;1.13;;;30.50;99.90;;;;;;4805263;28;20182;-80
2021/05/26 12:59:55;;;;;;;12.00;1.67;;;31.30;99.90;;;;;;4839767;28;20715;-79
2021/05/26 13:02:19;;;;;;;10.52;1.42;;;32.50;99.90;;;;;;4838050;28;20718;-79
2021/05/26 13:04:45;;;;;;;20.65;2.70;;;33.80;1.00;;;;;;4839363;28;20237;-84
2021/05/26 13:07:23;;;;;;;9.15;1.30;;;34.90;99.90;;;;;;4822889;28;20186;-81
2021/05/26 13:09:45;;;;;;;19.65;2.58;;;36.20;1.00;;;;;;4839174;28;20178;-79
2021/05/26 13:12:08;;;;;;;11.48;1.55;;;36.90;99.90;;;;;;4839794;28;20245;-85
2021/05/26 13:14:31;;;;;;;9.13;1.27;;;37.90;1.00;;;;;;4839669;28;20194;-83
2021/05/26 13:16:53;;;;;;;13.07;1.75;;;37.00;1.00;;;;;;4820650;28;20211;-84